sensor_id;sensor_type;location;lat;lon;timestamp;P1;durP1;ratioP1;P2;durP2;ratioP2
5379;SDS011;2713;42.680;23.310;2023-03-14T00:01:20;19.50;;;14.17;;
5379;SDS011;2713;42.680;23.310;2023-03-14T00:03:47;14.77;;;9.87;;
5379;SDS011;2713;42.680;23.310;2023-03-14T00:06:14;13.93;;;9.10;;
5379;SDS011;2713;42.680;23.310;2023-03-14T00:08:42;8.20;;;7.40;;
5379;SDS011;2713;42.680;23.310;2023-03-14T00:11:11;9.17;;;7.10;;
5379;SDS011;2713;42.680;23.310;2023-03-14T00:13:39;8.80;;;6.40;;
5379;SDS011;2713;42.680;23.310;2023-03-14T00:16:06;9.33;;;6.30;;
5379;SDS011;2713;42.680;23.310;2023-03-14T00:18:37;8.00;;;6.73;;
5379;SDS011;2713;42.680;23.310;2023-03-14T00:21:04;6.90;;;6.20;;
5379;SDS011;2713;42.680;23.310;2023-03-14T00:23:33;8.47;;;6.70;;
5379;SDS011;2713;42.680;23.310;2023-03-14T00:26:02;6.60;;;5.80;;
5379;SDS011;2713;42.680;23.310;2023-03-14T00:28:31;10.40;;;8.50;;
5379;SDS011;2713;42.680;23.310;2023-03-14T00:30:58;14.20;;;8.90;;
5379;SDS011;2713;42.680;23.310;2023-03-14T00:33:24;16.53;;;10.73;;
5379;SDS011;2713;42.680;23.310;2023-03-14T00:35:53;19.20;;;11.50;;
5379;SDS011;2713;42.680;23.310;2023-03-14T00:38:21;21.53;;;13.20;;
5379;SDS011;2713;42.680;23.310;2023-03-14T00:40:49;20.63;;;12.60;;
5379;SDS011;2713;42.680;23.310;2023-03-14T00:43:16;21.27;;;12.97;;
5379;SDS011;2713;42.680;23.310;2023-03-14T00:45:43;18.97;;;12.27;;
5379;SDS011;2713;42.680;23.310;2023-03-14T00:48:10;18.90;;;12.50;;
5379;SDS011;2713;42.680;23.310;2023-03-14T00:50:38;20.83;;;12.50;;
5379;SDS011;2713;42.680;23.310;2023-03-14T00:53:07;21.87;;;13.00;;
5379;SDS011;2713;42.680;23.310;2023-03-14T00:55:36;22.30;;;13.37;;
5379;SDS011;2713;42.680;23.310;2023-03-14T00:58:03;21.87;;;13.33;;
5379;SDS011;2713;42.680;23.310;2023-03-14T01:00:30;24.90;;;14.07;;
5379;SDS011;2713;42.680;23.310;2023-03-14T01:02:57;18.23;;;12.63;;
5379;SDS011;2713;42.680;23.310;2023-03-14T01:05:24;17.37;;;13.17;;
5379;SDS011;2713;42.680;23.310;2023-03-14T01:07:51;17.20;;;12.23;;
5379;SDS011;2713;42.680;23.310;2023-03-14T01:10:19;18.97;;;13.40;;
5379;SDS011;2713;42.680;23.310;2023-03-14T01:12:46;17.33;;;12.40;;
5379;SDS011;2713;42.680;23.310;2023-03-14T01:15:12;17.53;;;12.63;;
5379;SDS011;2713;42.680;23.310;2023-03-14T01:17:39;20.13;;;12.33;;
5379;SDS011;2713;42.680;23.310;2023-03-14T01:20:07;19.50;;;13.50;;
5379;SDS011;2713;42.680;23.310;2023-03-14T01:22:37;21.60;;;13.10;;
5379;SDS011;2713;42.680;23.310;2023-03-14T01:25:05;17.67;;;12.37;;
5379;SDS011;2713;42.680;23.310;2023-03-14T01:27:34;15.93;;;12.00;;
5379;SDS011;2713;42.680;23.310;2023-03-14T01:30:01;16.90;;;13.10;;
5379;SDS011;2713;42.680;23.310;2023-03-14T01:32:30;19.30;;;13.20;;
5379;SDS011;2713;42.680;23.310;2023-03-14T01:34:56;20.83;;;13.20;;
5379;SDS011;2713;42.680;23.310;2023-03-14T01:37:23;20.47;;;12.27;;
5379;SDS011;2713;42.680;23.310;2023-03-14T01:39:50;18.43;;;12.83;;
5379;SDS011;2713;42.680;23.310;2023-03-14T01:42:18;18.63;;;12.10;;
5379;SDS011;2713;42.680;23.310;2023-03-14T01:44:50;16.80;;;12.50;;
5379;SDS011;2713;42.680;23.310;2023-03-14T01:47:19;17.50;;;12.53;;
5379;SDS011;2713;42.680;23.310;2023-03-14T01:49:46;16.40;;;12.83;;
5379;SDS011;2713;42.680;23.310;2023-03-14T01:52:15;16.93;;;12.20;;
5379;SDS011;2713;42.680;23.310;2023-03-14T01:54:46;17.67;;;11.90;;
5379;SDS011;2713;42.680;23.310;2023-03-14T01:57:17;16.00;;;12.10;;
5379;SDS011;2713;42.680;23.310;2023-03-14T01:59:48;17.67;;;12.33;;
5379;SDS011;2713;42.680;23.310;2023-03-14T02:02:20;17.37;;;12.90;;
5379;SDS011;2713;42.680;23.310;2023-03-14T02:04:49;21.10;;;13.73;;
5379;SDS011;2713;42.680;23.310;2023-03-14T02:07:21;16.30;;;12.70;;
5379;SDS011;2713;42.680;23.310;2023-03-14T02:09:58;20.17;;;13.37;;
5379;SDS011;2713;42.680;23.310;2023-03-14T02:12:30;16.00;;;11.97;;
5379;SDS011;2713;42.680;23.310;2023-03-14T02:15:18;16.17;;;12.50;;
5379;SDS011;2713;42.680;23.310;2023-03-14T02:17:53;17.60;;;12.77;;
5379;SDS011;2713;42.680;23.310;2023-03-14T02:20:28;16.67;;;13.10;;
5379;SDS011;2713;42.680;23.310;2023-03-14T02:23:00;18.07;;;12.50;;
5379;SDS011;2713;42.680;23.310;2023-03-14T02:25:31;20.50;;;13.00;;
5379;SDS011;2713;42.680;23.310;2023-03-14T02:28:05;19.97;;;13.57;;
5379;SDS011;2713;42.680;23.310;2023-03-14T02:30:33;16.93;;;13.10;;
5379;SDS011;2713;42.680;23.310;2023-03-14T02:33:01;16.20;;;13.10;;
5379;SDS011;2713;42.680;23.310;2023-03-14T02:35:32;18.93;;;12.80;;
5379;SDS011;2713;42.680;23.310;2023-03-14T02:38:03;18.17;;;13.63;;
5379;SDS011;2713;42.680;23.310;2023-03-14T02:40:42;19.43;;;12.90;;
5379;SDS011;2713;42.680;23.310;2023-03-14T02:43:11;18.00;;;12.03;;
5379;SDS011;2713;42.680;23.310;2023-03-14T02:45:44;19.20;;;12.50;;
5379;SDS011;2713;42.680;23.310;2023-03-14T02:48:19;15.07;;;12.03;;
5379;SDS011;2713;42.680;23.310;2023-03-14T02:50:50;15.90;;;11.60;;
5379;SDS011;2713;42.680;23.310;2023-03-14T02:53:25;15.23;;;11.67;;
5379;SDS011;2713;42.680;23.310;2023-03-14T02:55:57;15.35;;;11.88;;
5379;SDS011;2713;42.680;23.310;2023-03-14T02:58:27;15.63;;;11.40;;
5379;SDS011;2713;42.680;23.310;2023-03-14T03:01:03;15.03;;;11.17;;
5379;SDS011;2713;42.680;23.310;2023-03-14T03:03:31;14.93;;;11.23;;
5379;SDS011;2713;42.680;23.310;2023-03-14T03:05:58;17.67;;;12.40;;
5379;SDS011;2713;42.680;23.310;2023-03-14T03:08:27;17.73;;;11.55;;
5379;SDS011;2713;42.680;23.310;2023-03-14T03:10:56;16.80;;;11.40;;
5379;SDS011;2713;42.680;23.310;2023-03-14T03:13:27;16.77;;;12.47;;
5379;SDS011;2713;42.680;23.310;2023-03-14T03:15:55;15.47;;;11.23;;
5379;SDS011;2713;42.680;23.310;2023-03-14T03:18:22;21.30;;;12.73;;
5379;SDS011;2713;42.680;23.310;2023-03-14T03:20:49;18.53;;;12.20;;
5379;SDS011;2713;42.680;23.310;2023-03-14T03:23:17;15.70;;;12.60;;
5379;SDS011;2713;42.680;23.310;2023-03-14T03:25:47;18.53;;;13.00;;
5379;SDS011;2713;42.680;23.310;2023-03-14T03:28:19;15.60;;;12.60;;
5379;SDS011;2713;42.680;23.310;2023-03-14T03:30:50;17.93;;;11.93;;
5379;SDS011;2713;42.680;23.310;2023-03-14T03:33:19;17.57;;;12.53;;
5379;SDS011;2713;42.680;23.310;2023-03-14T03:35:49;16.73;;;11.80;;
5379;SDS011;2713;42.680;23.310;2023-03-14T03:38:23;15.00;;;11.83;;
5379;SDS011;2713;42.680;23.310;2023-03-14T03:40:53;15.60;;;11.40;;
5379;SDS011;2713;42.680;23.310;2023-03-14T03:43:24;17.20;;;12.47;;
5379;SDS011;2713;42.680;23.310;2023-03-14T03:45:52;16.27;;;12.50;;
5379;SDS011;2713;42.680;23.310;2023-03-14T03:48:22;17.13;;;12.13;;
5379;SDS011;2713;42.680;23.310;2023-03-14T03:50:52;22.93;;;13.90;;
5379;SDS011;2713;42.680;23.310;2023-03-14T03:53:21;19.90;;;12.83;;
5379;SDS011;2713;42.680;23.310;2023-03-14T03:55:48;17.87;;;12.90;;
5379;SDS011;2713;42.680;23.310;2023-03-14T03:58:15;18.23;;;12.97;;
5379;SDS011;2713;42.680;23.310;2023-03-14T04:00:44;16.70;;;12.93;;
5379;SDS011;2713;42.680;23.310;2023-03-14T04:03:12;17.60;;;12.77;;
5379;SDS011;2713;42.680;23.310;2023-03-14T04:05:39;20.93;;;12.80;;
5379;SDS011;2713;42.680;23.310;2023-03-14T04:08:08;14.63;;;12.80;;
5379;SDS011;2713;42.680;23.310;2023-03-14T04:10:36;19.05;;;12.70;;
5379;SDS011;2713;42.680;23.310;2023-03-14T04:13:14;17.60;;;12.60;;
5379;SDS011;2713;42.680;23.310;2023-03-14T04:15:43;21.15;;;12.73;;
5379;SDS011;2713;42.680;23.310;2023-03-14T04:18:24;21.80;;;13.02;;
5379;SDS011;2713;42.680;23.310;2023-03-14T04:20:51;21.15;;;13.13;;
5379;SDS011;2713;42.680;23.310;2023-03-14T04:23:20;18.08;;;12.23;;
5379;SDS011;2713;42.680;23.310;2023-03-14T04:25:49;19.33;;;13.27;;
5379;SDS011;2713;42.680;23.310;2023-03-14T04:28:16;15.77;;;12.50;;
5379;SDS011;2713;42.680;23.310;2023-03-14T04:30:44;16.67;;;12.40;;
5379;SDS011;2713;42.680;23.310;2023-03-14T04:33:15;17.65;;;12.82;;
5379;SDS011;2713;42.680;23.310;2023-03-14T04:35:52;18.63;;;12.68;;
5379;SDS011;2713;42.680;23.310;2023-03-14T04:38:21;17.30;;;12.55;;
5379;SDS011;2713;42.680;23.310;2023-03-14T04:40:49;18.60;;;13.23;;
5379;SDS011;2713;42.680;23.310;2023-03-14T04:43:18;19.63;;;13.10;;
5379;SDS011;2713;42.680;23.310;2023-03-14T04:45:49;20.93;;;12.93;;
5379;SDS011;2713;42.680;23.310;2023-03-14T04:48:17;17.83;;;13.00;;
5379;SDS011;2713;42.680;23.310;2023-03-14T04:50:44;20.00;;;13.07;;
5379;SDS011;2713;42.680;23.310;2023-03-14T04:53:13;19.83;;;12.55;;
5379;SDS011;2713;42.680;23.310;2023-03-14T04:55:46;19.20;;;12.45;;
5379;SDS011;2713;42.680;23.310;2023-03-14T04:58:14;16.35;;;12.20;;
5379;SDS011;2713;42.680;23.310;2023-03-14T05:00:42;16.90;;;12.90;;
5379;SDS011;2713;42.680;23.310;2023-03-14T05:03:21;15.23;;;12.20;;
5379;SDS011;2713;42.680;23.310;2023-03-14T05:06:11;17.03;;;13.30;;
5379;SDS011;2713;42.680;23.310;2023-03-14T05:09:00;17.77;;;11.82;;
5379;SDS011;2713;42.680;23.310;2023-03-14T05:11:33;19.67;;;12.25;;
5379;SDS011;2713;42.680;23.310;2023-03-14T05:14:32;16.43;;;12.30;;
5379;SDS011;2713;42.680;23.310;2023-03-14T05:17:17;15.80;;;12.00;;
5379;SDS011;2713;42.680;23.310;2023-03-14T05:20:00;17.48;;;12.80;;
5379;SDS011;2713;42.680;23.310;2023-03-14T05:22:49;14.80;;;12.40;;
5379;SDS011;2713;42.680;23.310;2023-03-14T05:25:39;19.90;;;12.87;;
5379;SDS011;2713;42.680;23.310;2023-03-14T05:28:13;18.73;;;12.37;;
5379;SDS011;2713;42.680;23.310;2023-03-14T05:31:00;18.63;;;12.60;;
5379;SDS011;2713;42.680;23.310;2023-03-14T05:33:42;20.30;;;12.50;;
5379;SDS011;2713;42.680;23.310;2023-03-14T05:36:48;16.87;;;11.97;;
5379;SDS011;2713;42.680;23.310;2023-03-14T05:39:38;16.10;;;10.97;;
5379;SDS011;2713;42.680;23.310;2023-03-14T05:42:24;17.40;;;12.40;;
5379;SDS011;2713;42.680;23.310;2023-03-14T05:45:05;16.73;;;13.17;;
5379;SDS011;2713;42.680;23.310;2023-03-14T05:48:04;19.30;;;12.23;;
5379;SDS011;2713;42.680;23.310;2023-03-14T05:50:57;16.07;;;12.07;;
5379;SDS011;2713;42.680;23.310;2023-03-14T05:53:58;19.10;;;12.60;;
5379;SDS011;2713;42.680;23.310;2023-03-14T05:56:43;16.60;;;12.53;;
5379;SDS011;2713;42.680;23.310;2023-03-14T05:59:17;17.50;;;12.30;;
5379;SDS011;2713;42.680;23.310;2023-03-14T06:01:56;18.77;;;12.47;;
5379;SDS011;2713;42.680;23.310;2023-03-14T06:04:25;17.90;;;13.13;;
5379;SDS011;2713;42.680;23.310;2023-03-14T06:06:56;18.87;;;13.37;;
5379;SDS011;2713;42.680;23.310;2023-03-14T06:09:23;21.00;;;13.87;;
5379;SDS011;2713;42.680;23.310;2023-03-14T06:11:52;19.60;;;13.57;;
5379;SDS011;2713;42.680;23.310;2023-03-14T06:14:21;21.40;;;14.17;;
5379;SDS011;2713;42.680;23.310;2023-03-14T06:16:48;20.10;;;13.47;;
5379;SDS011;2713;42.680;23.310;2023-03-14T06:19:17;18.50;;;14.33;;
5379;SDS011;2713;42.680;23.310;2023-03-14T06:21:45;19.37;;;13.77;;
5379;SDS011;2713;42.680;23.310;2023-03-14T06:24:12;23.50;;;14.70;;
5379;SDS011;2713;42.680;23.310;2023-03-14T06:26:43;19.63;;;13.87;;
5379;SDS011;2713;42.680;23.310;2023-03-14T06:29:10;20.87;;;14.20;;
5379;SDS011;2713;42.680;23.310;2023-03-14T06:31:40;21.07;;;13.93;;
5379;SDS011;2713;42.680;23.310;2023-03-14T06:34:08;24.60;;;14.30;;
5379;SDS011;2713;42.680;23.310;2023-03-14T06:36:35;19.20;;;12.67;;
5379;SDS011;2713;42.680;23.310;2023-03-14T06:39:02;17.43;;;14.00;;
5379;SDS011;2713;42.680;23.310;2023-03-14T06:41:31;23.50;;;13.50;;
5379;SDS011;2713;42.680;23.310;2023-03-14T06:43:59;17.30;;;13.23;;
5379;SDS011;2713;42.680;23.310;2023-03-14T06:46:25;17.27;;;13.27;;
5379;SDS011;2713;42.680;23.310;2023-03-14T06:48:54;19.37;;;13.77;;
5379;SDS011;2713;42.680;23.310;2023-03-14T06:51:21;20.17;;;13.17;;
5379;SDS011;2713;42.680;23.310;2023-03-14T06:53:48;17.70;;;13.23;;
5379;SDS011;2713;42.680;23.310;2023-03-14T06:56:17;26.30;;;14.23;;
5379;SDS011;2713;42.680;23.310;2023-03-14T06:58:44;22.60;;;15.10;;
5379;SDS011;2713;42.680;23.310;2023-03-14T07:01:17;16.43;;;12.53;;
5379;SDS011;2713;42.680;23.310;2023-03-14T07:03:48;18.77;;;13.00;;
5379;SDS011;2713;42.680;23.310;2023-03-14T07:06:16;12.30;;;10.83;;
5379;SDS011;2713;42.680;23.310;2023-03-14T07:08:43;14.17;;;11.73;;
5379;SDS011;2713;42.680;23.310;2023-03-14T07:11:10;17.23;;;12.23;;
5379;SDS011;2713;42.680;23.310;2023-03-14T07:13:37;14.40;;;11.77;;
5379;SDS011;2713;42.680;23.310;2023-03-14T07:16:06;14.07;;;11.17;;
5379;SDS011;2713;42.680;23.310;2023-03-14T07:18:35;30.87;;;23.53;;
5379;SDS011;2713;42.680;23.310;2023-03-14T07:21:04;13.80;;;11.97;;
5379;SDS011;2713;42.680;23.310;2023-03-14T07:23:33;15.43;;;11.40;;
5379;SDS011;2713;42.680;23.310;2023-03-14T07:26:00;17.90;;;13.63;;
5379;SDS011;2713;42.680;23.310;2023-03-14T07:28:28;22.27;;;14.20;;
5379;SDS011;2713;42.680;23.310;2023-03-14T07:31:00;22.30;;;14.50;;
5379;SDS011;2713;42.680;23.310;2023-03-14T07:33:30;17.00;;;13.00;;
5379;SDS011;2713;42.680;23.310;2023-03-14T07:35:58;16.00;;;13.83;;
5379;SDS011;2713;42.680;23.310;2023-03-14T07:38:25;19.77;;;15.13;;
5379;SDS011;2713;42.680;23.310;2023-03-14T07:41:16;23.80;;;14.53;;
5379;SDS011;2713;42.680;23.310;2023-03-14T07:44:06;18.37;;;14.83;;
5379;SDS011;2713;42.680;23.310;2023-03-14T07:46:33;18.80;;;15.77;;
5379;SDS011;2713;42.680;23.310;2023-03-14T07:49:00;25.37;;;15.93;;
5379;SDS011;2713;42.680;23.310;2023-03-14T07:51:26;21.73;;;17.17;;
5379;SDS011;2713;42.680;23.310;2023-03-14T07:53:53;20.90;;;16.20;;
5379;SDS011;2713;42.680;23.310;2023-03-14T07:56:21;21.00;;;16.43;;
5379;SDS011;2713;42.680;23.310;2023-03-14T07:58:48;20.20;;;16.60;;
5379;SDS011;2713;42.680;23.310;2023-03-14T08:01:15;25.40;;;16.63;;
5379;SDS011;2713;42.680;23.310;2023-03-14T08:03:42;19.33;;;16.30;;
5379;SDS011;2713;42.680;23.310;2023-03-14T08:06:09;20.83;;;16.20;;
5379;SDS011;2713;42.680;23.310;2023-03-14T08:08:35;21.80;;;15.60;;
5379;SDS011;2713;42.680;23.310;2023-03-14T08:11:03;18.90;;;15.20;;
5379;SDS011;2713;42.680;23.310;2023-03-14T08:13:32;18.93;;;14.97;;
5379;SDS011;2713;42.680;23.310;2023-03-14T08:15:58;19.67;;;16.07;;
5379;SDS011;2713;42.680;23.310;2023-03-14T08:18:25;19.93;;;15.50;;
5379;SDS011;2713;42.680;23.310;2023-03-14T08:20:52;17.97;;;14.37;;
5379;SDS011;2713;42.680;23.310;2023-03-14T08:23:19;21.10;;;15.53;;
5379;SDS011;2713;42.680;23.310;2023-03-14T08:25:45;17.13;;;14.83;;
5379;SDS011;2713;42.680;23.310;2023-03-14T08:28:15;19.77;;;15.90;;
5379;SDS011;2713;42.680;23.310;2023-03-14T08:30:43;22.63;;;16.13;;
5379;SDS011;2713;42.680;23.310;2023-03-14T08:33:10;20.13;;;15.80;;
5379;SDS011;2713;42.680;23.310;2023-03-14T08:35:37;20.33;;;13.80;;
5379;SDS011;2713;42.680;23.310;2023-03-14T08:38:04;16.17;;;14.27;;
5379;SDS011;2713;42.680;23.310;2023-03-14T08:40:31;23.20;;;13.10;;
5379;SDS011;2713;42.680;23.310;2023-03-14T08:42:58;18.60;;;14.60;;
5379;SDS011;2713;42.680;23.310;2023-03-14T08:45:24;15.83;;;13.43;;
5379;SDS011;2713;42.680;23.310;2023-03-14T08:47:53;23.50;;;14.50;;
5379;SDS011;2713;42.680;23.310;2023-03-14T08:50:20;18.00;;;13.30;;
5379;SDS011;2713;42.680;23.310;2023-03-14T08:52:48;22.07;;;14.00;;
5379;SDS011;2713;42.680;23.310;2023-03-14T08:55:15;23.70;;;14.40;;
5379;SDS011;2713;42.680;23.310;2023-03-14T08:57:42;18.40;;;13.80;;
5379;SDS011;2713;42.680;23.310;2023-03-14T09:00:09;21.33;;;13.10;;
5379;SDS011;2713;42.680;23.310;2023-03-14T09:02:37;20.03;;;13.47;;
5379;SDS011;2713;42.680;23.310;2023-03-14T09:05:06;17.43;;;11.73;;
5379;SDS011;2713;42.680;23.310;2023-03-14T09:07:33;15.97;;;12.70;;
5379;SDS011;2713;42.680;23.310;2023-03-14T09:10:00;15.83;;;12.00;;
5379;SDS011;2713;42.680;23.310;2023-03-14T09:12:27;14.70;;;12.37;;
5379;SDS011;2713;42.680;23.310;2023-03-14T09:14:54;13.80;;;11.13;;
5379;SDS011;2713;42.680;23.310;2023-03-14T09:17:21;12.87;;;11.23;;
5379;SDS011;2713;42.680;23.310;2023-03-14T09:19:48;17.17;;;10.00;;
5379;SDS011;2713;42.680;23.310;2023-03-14T09:22:16;15.00;;;10.40;;
5379;SDS011;2713;42.680;23.310;2023-03-14T09:24:43;12.20;;;10.53;;
5379;SDS011;2713;42.680;23.310;2023-03-14T09:27:10;12.07;;;10.23;;
5379;SDS011;2713;42.680;23.310;2023-03-14T09:29:36;14.50;;;10.53;;
5379;SDS011;2713;42.680;23.310;2023-03-14T09:32:03;12.87;;;10.47;;
5379;SDS011;2713;42.680;23.310;2023-03-14T09:34:30;13.80;;;9.60;;
5379;SDS011;2713;42.680;23.310;2023-03-14T09:36:57;11.93;;;9.90;;
5379;SDS011;2713;42.680;23.310;2023-03-14T09:39:25;14.27;;;10.30;;
5379;SDS011;2713;42.680;23.310;2023-03-14T09:41:52;11.33;;;9.50;;
5379;SDS011;2713;42.680;23.310;2023-03-14T09:44:24;11.10;;;9.20;;
5379;SDS011;2713;42.680;23.310;2023-03-14T09:46:54;13.43;;;9.87;;
5379;SDS011;2713;42.680;23.310;2023-03-14T09:49:25;13.07;;;9.97;;
5379;SDS011;2713;42.680;23.310;2023-03-14T09:51:56;11.83;;;9.17;;
5379;SDS011;2713;42.680;23.310;2023-03-14T09:54:31;9.70;;;8.40;;
5379;SDS011;2713;42.680;23.310;2023-03-14T09:57:01;11.87;;;8.10;;
5379;SDS011;2713;42.680;23.310;2023-03-14T09:59:30;10.43;;;8.57;;
5379;SDS011;2713;42.680;23.310;2023-03-14T10:01:58;17.57;;;12.53;;
5379;SDS011;2713;42.680;23.310;2023-03-14T10:04:27;10.63;;;8.50;;
5379;SDS011;2713;42.680;23.310;2023-03-14T10:06:55;11.47;;;8.33;;
5379;SDS011;2713;42.680;23.310;2023-03-14T10:09:22;8.47;;;7.50;;
5379;SDS011;2713;42.680;23.310;2023-03-14T10:11:53;11.27;;;8.40;;
5379;SDS011;2713;42.680;23.310;2023-03-14T10:14:28;10.70;;;6.90;;
5379;SDS011;2713;42.680;23.310;2023-03-14T10:17:04;8.80;;;6.80;;
5379;SDS011;2713;42.680;23.310;2023-03-14T10:19:33;8.70;;;7.33;;
5379;SDS011;2713;42.680;23.310;2023-03-14T10:22:01;10.03;;;7.10;;
5379;SDS011;2713;42.680;23.310;2023-03-14T10:24:30;7.53;;;6.80;;
5379;SDS011;2713;42.680;23.310;2023-03-14T10:27:00;9.40;;;6.80;;
5379;SDS011;2713;42.680;23.310;2023-03-14T10:52:33;17.20;;;12.40;;
5379;SDS011;2713;42.680;23.310;2023-03-14T10:55:01;10.50;;;8.30;;
5379;SDS011;2713;42.680;23.310;2023-03-14T10:57:38;10.73;;;7.90;;
5379;SDS011;2713;42.680;23.310;2023-03-14T11:00:05;10.87;;;8.23;;
5379;SDS011;2713;42.680;23.310;2023-03-14T11:02:45;9.63;;;7.43;;
5379;SDS011;2713;42.680;23.310;2023-03-14T11:05:21;8.20;;;7.10;;
5379;SDS011;2713;42.680;23.310;2023-03-14T11:07:58;9.67;;;7.10;;
5379;SDS011;2713;42.680;23.310;2023-03-14T11:10:31;9.07;;;6.93;;
5379;SDS011;2713;42.680;23.310;2023-03-14T11:13:04;7.17;;;6.47;;
5379;SDS011;2713;42.680;23.310;2023-03-14T11:15:41;7.07;;;5.83;;
5379;SDS011;2713;42.680;23.310;2023-03-14T11:18:18;7.00;;;5.77;;
5379;SDS011;2713;42.680;23.310;2023-03-14T11:21:07;5.17;;;4.77;;
5379;SDS011;2713;42.680;23.310;2023-03-14T11:23:41;5.73;;;5.23;;
5379;SDS011;2713;42.680;23.310;2023-03-14T11:26:20;9.80;;;6.60;;
5379;SDS011;2713;42.680;23.310;2023-03-14T11:28:57;6.13;;;5.03;;
5379;SDS011;2713;42.680;23.310;2023-03-14T11:31:25;5.20;;;4.70;;
5379;SDS011;2713;42.680;23.310;2023-03-14T11:33:55;4.23;;;3.93;;
5379;SDS011;2713;42.680;23.310;2023-03-14T11:36:27;8.73;;;5.87;;
5379;SDS011;2713;42.680;23.310;2023-03-14T11:39:00;5.90;;;5.20;;
5379;SDS011;2713;42.680;23.310;2023-03-14T11:41:29;7.30;;;5.23;;
5379;SDS011;2713;42.680;23.310;2023-03-14T11:43:59;6.93;;;4.73;;
5379;SDS011;2713;42.680;23.310;2023-03-14T11:46:31;8.07;;;4.57;;
5379;SDS011;2713;42.680;23.310;2023-03-14T11:49:03;7.20;;;4.87;;
5379;SDS011;2713;42.680;23.310;2023-03-14T11:51:38;6.57;;;4.90;;
5379;SDS011;2713;42.680;23.310;2023-03-14T11:54:11;8.47;;;5.43;;
5379;SDS011;2713;42.680;23.310;2023-03-14T11:56:44;5.90;;;5.00;;
5379;SDS011;2713;42.680;23.310;2023-03-14T11:59:17;4.90;;;4.50;;
5379;SDS011;2713;42.680;23.310;2023-03-14T12:01:51;4.37;;;3.90;;
5379;SDS011;2713;42.680;23.310;2023-03-14T12:04:40;6.30;;;5.03;;
5379;SDS011;2713;42.680;23.310;2023-03-14T12:07:17;7.03;;;5.30;;
5379;SDS011;2713;42.680;23.310;2023-03-14T12:09:48;5.03;;;4.63;;
5379;SDS011;2713;42.680;23.310;2023-03-14T12:12:18;4.70;;;4.30;;
5379;SDS011;2713;42.680;23.310;2023-03-14T12:14:52;6.17;;;4.40;;
5379;SDS011;2713;42.680;23.310;2023-03-14T12:17:21;5.50;;;4.47;;
5379;SDS011;2713;42.680;23.310;2023-03-14T12:19:59;4.20;;;3.80;;
5379;SDS011;2713;42.680;23.310;2023-03-14T12:22:31;5.57;;;5.00;;
5379;SDS011;2713;42.680;23.310;2023-03-14T12:25:04;5.07;;;4.37;;
5379;SDS011;2713;42.680;23.310;2023-03-14T12:27:49;4.83;;;4.17;;
5379;SDS011;2713;42.680;23.310;2023-03-14T12:30:30;8.93;;;4.20;;
5379;SDS011;2713;42.680;23.310;2023-03-14T12:35:57;4.20;;;3.90;;
5379;SDS011;2713;42.680;23.310;2023-03-14T12:38:30;5.93;;;4.10;;
5379;SDS011;2713;42.680;23.310;2023-03-14T12:41:14;3.80;;;3.50;;
5379;SDS011;2713;42.680;23.310;2023-03-14T12:43:43;5.70;;;4.00;;
5379;SDS011;2713;42.680;23.310;2023-03-14T12:46:23;3.87;;;3.53;;
5379;SDS011;2713;42.680;23.310;2023-03-14T12:48:54;4.87;;;4.53;;
5379;SDS011;2713;42.680;23.310;2023-03-14T12:51:30;4.17;;;3.30;;
5379;SDS011;2713;42.680;23.310;2023-03-14T12:56:59;3.57;;;3.27;;
5379;SDS011;2713;42.680;23.310;2023-03-14T12:59:36;3.43;;;3.23;;
5379;SDS011;2713;42.680;23.310;2023-03-14T13:02:18;4.20;;;3.60;;
5379;SDS011;2713;42.680;23.310;2023-03-14T13:04:48;4.03;;;3.63;;
5379;SDS011;2713;42.680;23.310;2023-03-14T13:07:35;3.93;;;3.43;;
5379;SDS011;2713;42.680;23.310;2023-03-14T13:10:24;3.57;;;2.83;;
5379;SDS011;2713;42.680;23.310;2023-03-14T13:12:54;3.50;;;3.20;;
5379;SDS011;2713;42.680;23.310;2023-03-14T13:15:26;13.63;;;11.00;;
5379;SDS011;2713;42.680;23.310;2023-03-14T13:17:59;6.50;;;5.90;;
5379;SDS011;2713;42.680;23.310;2023-03-14T13:20:30;4.40;;;3.53;;
5379;SDS011;2713;42.680;23.310;2023-03-14T13:23:00;7.83;;;7.00;;
5379;SDS011;2713;42.680;23.310;2023-03-14T13:25:29;3.33;;;2.90;;
5379;SDS011;2713;42.680;23.310;2023-03-14T13:28:00;2.80;;;2.60;;
5379;SDS011;2713;42.680;23.310;2023-03-14T13:30:28;3.83;;;3.40;;
5379;SDS011;2713;42.680;23.310;2023-03-14T13:33:03;9.80;;;4.43;;
5379;SDS011;2713;42.680;23.310;2023-03-14T13:35:38;3.73;;;3.33;;
5379;SDS011;2713;42.680;23.310;2023-03-14T13:38:13;4.40;;;3.13;;
5379;SDS011;2713;42.680;23.310;2023-03-14T13:40:43;3.00;;;2.70;;
5379;SDS011;2713;42.680;23.310;2023-03-14T13:43:15;5.80;;;2.97;;
5379;SDS011;2713;42.680;23.310;2023-03-14T13:45:45;3.70;;;3.13;;
5379;SDS011;2713;42.680;23.310;2023-03-14T13:48:15;8.30;;;5.70;;
5379;SDS011;2713;42.680;23.310;2023-03-14T13:50:46;3.43;;;3.13;;
5379;SDS011;2713;42.680;23.310;2023-03-14T13:53:17;5.00;;;3.63;;
5379;SDS011;2713;42.680;23.310;2023-03-14T13:55:44;3.43;;;2.60;;
5379;SDS011;2713;42.680;23.310;2023-03-14T13:58:21;2.80;;;2.60;;
5379;SDS011;2713;42.680;23.310;2023-03-14T14:01:02;3.30;;;3.00;;
5379;SDS011;2713;42.680;23.310;2023-03-14T14:03:32;3.00;;;2.80;;
5379;SDS011;2713;42.680;23.310;2023-03-14T14:06:01;3.10;;;2.80;;
5379;SDS011;2713;42.680;23.310;2023-03-14T14:08:27;4.37;;;2.90;;
5379;SDS011;2713;42.680;23.310;2023-03-14T14:10:57;2.90;;;2.70;;
5379;SDS011;2713;42.680;23.310;2023-03-14T14:13:29;4.47;;;2.80;;
5379;SDS011;2713;42.680;23.310;2023-03-14T14:15:58;6.80;;;2.70;;
5379;SDS011;2713;42.680;23.310;2023-03-14T14:18:26;7.47;;;3.13;;
5379;SDS011;2713;42.680;23.310;2023-03-14T14:20:55;3.50;;;2.80;;
5379;SDS011;2713;42.680;23.310;2023-03-14T14:23:23;3.70;;;3.10;;
5379;SDS011;2713;42.680;23.310;2023-03-14T14:25:54;3.60;;;2.67;;
5379;SDS011;2713;42.680;23.310;2023-03-14T14:28:24;3.37;;;2.80;;
5379;SDS011;2713;42.680;23.310;2023-03-14T14:31:02;2.87;;;2.67;;
5379;SDS011;2713;42.680;23.310;2023-03-14T14:33:38;4.63;;;2.90;;
5379;SDS011;2713;42.680;23.310;2023-03-14T14:36:12;3.43;;;2.50;;
5379;SDS011;2713;42.680;23.310;2023-03-14T14:38:48;4.13;;;2.77;;
5379;SDS011;2713;42.680;23.310;2023-03-14T14:41:16;4.00;;;3.70;;
5379;SDS011;2713;42.680;23.310;2023-03-14T14:43:43;6.60;;;2.73;;
5379;SDS011;2713;42.680;23.310;2023-03-14T14:46:15;5.83;;;3.33;;
5379;SDS011;2713;42.680;23.310;2023-03-14T14:48:44;3.73;;;3.30;;
5379;SDS011;2713;42.680;23.310;2023-03-14T14:51:21;4.00;;;3.70;;
5379;SDS011;2713;42.680;23.310;2023-03-14T14:53:59;4.23;;;3.10;;
5379;SDS011;2713;42.680;23.310;2023-03-14T14:56:28;5.00;;;2.80;;
5379;SDS011;2713;42.680;23.310;2023-03-14T14:58:57;2.60;;;2.40;;
5379;SDS011;2713;42.680;23.310;2023-03-14T15:01:31;3.63;;;2.53;;
5379;SDS011;2713;42.680;23.310;2023-03-14T15:03:59;3.07;;;2.87;;
5379;SDS011;2713;42.680;23.310;2023-03-14T15:06:28;2.57;;;2.47;;
5379;SDS011;2713;42.680;23.310;2023-03-14T15:08:56;2.80;;;2.60;;
5379;SDS011;2713;42.680;23.310;2023-03-14T15:11:24;4.53;;;2.90;;
5379;SDS011;2713;42.680;23.310;2023-03-14T15:13:52;3.10;;;2.43;;
5379;SDS011;2713;42.680;23.310;2023-03-14T15:16:20;3.27;;;2.97;;
5379;SDS011;2713;42.680;23.310;2023-03-14T15:18:52;2.83;;;2.63;;
5379;SDS011;2713;42.680;23.310;2023-03-14T15:21:20;2.30;;;2.10;;
5379;SDS011;2713;42.680;23.310;2023-03-14T15:23:47;7.83;;;2.57;;
5379;SDS011;2713;42.680;23.310;2023-03-14T15:26:15;2.57;;;2.40;;
5379;SDS011;2713;42.680;23.310;2023-03-14T15:28:44;4.07;;;2.30;;
5379;SDS011;2713;42.680;23.310;2023-03-14T15:31:16;2.90;;;2.70;;
5379;SDS011;2713;42.680;23.310;2023-03-14T15:33:44;2.83;;;2.63;;
5379;SDS011;2713;42.680;23.310;2023-03-14T15:36:19;3.10;;;2.40;;